Time;durP1;ratioP1;P1;durP2;ratioP2;P2;SDS_P1;SDS_P2;PMS_P1;PMS_P2;Temp;Humidity;BMP_temperature;BMP_pressure;BME280_temperature;BME280_humidity;BME280_pressure;Samples;Min_cycle;Max_cycle;Signal;HPM_P1;HPM_P2
2023/06/16 00:00:48;;;;;;;18.63;10.07;;;;;;;14.13;100.00;102077.72;5079946;28;20392;-82
2023/06/16 00:03:15;;;;;;;13.63;9.85;;;;;;;14.05;100.00;102069.53;5081150;28;20032;-82
2023/06/16 00:05:44;;;;;;;15.38;9.50;;;;;;;13.99;100.00;102072.69;5083796;28;20054;-82
2023/06/16 00:08:12;;;;;;;14.10;9.95;;;;;;;13.93;100.00;102072.25;5082906;28;20462;-83
2023/06/16 00:10:37;;;;;;;12.60;10.07;;;;;;;13.89;100.00;102072.66;5083755;28;20114;-83
2023/06/16 00:13:07;;;;;;;13.57;10.05;;;;;;;13.85;100.00;102072.06;5099397;28;20128;-83
2023/06/16 00:15:33;;;;;;;14.40;11.00;;;;;;;13.84;100.00;102069.50;5101422;28;20078;-83
2023/06/16 00:18:00;;;;;;;18.48;10.50;;;;;;;13.84;100.00;102066.81;5076899;28;20503;-82
2023/06/16 00:20:28;;;;;;;13.32;9.98;;;;;;;13.80;100.00;102068.94;5094167;28;20468;-83
2023/06/16 00:22:54;;;;;;;16.42;10.85;;;;;;;13.76;100.00;102064.81;5093946;28;20384;-83
2023/06/16 00:25:25;;;;;;;10.80;8.63;;;;;;;13.71;100.00;102065.19;5094060;28;20035;-83
2023/06/16 00:27:50;;;;;;;11.93;8.63;;;;;;;13.68;100.00;102065.47;5076085;28;20439;-84
2023/06/16 00:30:16;;;;;;;11.18;8.13;;;;;;;13.63;100.00;102067.69;5093524;28;20361;-83
2023/06/16 00:32:44;;;;;;;14.70;7.97;;;;;;;13.60;100.00;102062.59;5093982;28;20062;-82
2023/06/16 00:35:09;;;;;;;11.57;7.78;;;;;;;13.57;100.00;102063.69;5094138;28;20032;-83
2023/06/16 00:37:37;;;;;;;15.00;8.32;;;;;;;13.55;100.00;102064.81;5094187;28;20032;-84
2023/06/16 00:40:04;;;;;;;9.68;7.00;;;;;;;13.47;100.00;102065.44;5093639;28;20123;-82
2023/06/16 00:42:31;;;;;;;9.38;6.90;;;;;;;13.43;100.00;102055.13;5093232;28;20473;-85
2023/06/16 00:44:57;;;;;;;11.27;7.20;;;;;;;13.39;100.00;102062.56;5075838;28;20032;-82
2023/06/16 00:47:22;;;;;;;9.40;7.72;;;;;;;13.36;100.00;102068.16;5075532;28;20028;-83
2023/06/16 00:49:50;;;;;;;12.55;8.73;;;;;;;13.33;100.00;102061.22;5075618;28;20059;-82
2023/06/16 00:52:20;;;;;;;8.90;7.22;;;;;;;13.32;100.00;102061.34;5060474;28;20079;-82
2023/06/16 00:54:48;;;;;;;9.10;7.60;;;;;;;13.28;100.00;102065.25;5095953;28;20031;-83
2023/06/16 00:57:16;;;;;;;8.73;6.88;;;;;;;13.23;100.00;102058.44;5095277;28;20114;-84
2023/06/16 00:59:44;;;;;;;8.80;6.95;;;;;;;13.21;100.00;102056.88;5094144;28;20124;-82
2023/06/16 01:02:10;;;;;;;10.55;6.95;;;;;;;13.14;100.00;102053.88;5094017;28;20024;-83
2023/06/16 01:04:36;;;;;;;9.40;7.53;;;;;;;13.14;100.00;102053.88;5093343;28;20035;-82
2023/06/16 01:07:14;;;;;;;9.45;7.68;;;;;;;13.11;100.00;102047.94;5092841;28;20413;-82
2023/06/16 01:10:14;;;;;;;9.02;6.93;;;;;;;13.12;100.00;102058.50;5093440;28;20020;-83
2023/06/16 01:12:54;;;;;;;9.00;7.10;;;;;;;13.09;100.00;102049.88;5029281;28;20120;-83
2023/06/16 01:15:27;;;;;;;8.98;7.32;;;;;;;13.01;100.00;102038.00;5072839;28;20480;-83
2023/06/16 01:17:59;;;;;;;11.38;7.32;;;;;;;13.00;100.00;102043.47;5073276;28;20369;-83
2023/06/16 01:20:37;;;;;;;9.95;6.85;;;;;;;12.99;100.00;102047.97;5073079;28;20068;-83
2023/06/16 01:23:42;;;;;;;12.70;7.30;;;;;;;12.93;100.00;102040.47;5073055;28;20060;-83
2023/06/16 01:26:11;;;;;;;9.75;7.25;;;;;;;12.92;100.00;102051.28;5073246;28;20032;-84
2023/06/16 01:28:41;;;;;;;10.95;7.30;;;;;;;12.88;100.00;102045.31;5073255;28;20392;-86
2023/06/16 01:31:08;;;;;;;11.27;7.35;;;;;;;12.84;100.00;102043.88;5078928;28;20108;-82
2023/06/16 01:33:38;;;;;;;9.10;7.68;;;;;;;12.82;100.00;102051.16;5071831;28;20067;-83
2023/06/16 01:36:08;;;;;;;11.70;8.00;;;;;;;12.82;100.00;102052.03;5073230;28;20094;-84
2023/06/16 01:38:36;;;;;;;8.43;7.32;;;;;;;12.78;100.00;102052.38;5073227;28;20091;-83
2023/06/16 01:41:04;;;;;;;14.35;8.68;;;;;;;12.73;100.00;102036.72;5073443;28;20043;-83
2023/06/16 01:43:32;;;;;;;11.30;7.68;;;;;;;12.69;100.00;102044.13;5054747;28;20033;-82
2023/06/16 01:45:58;;;;;;;8.48;6.45;;;;;;;12.68;100.00;102037.09;5072356;28;20029;-82
2023/06/16 01:48:26;;;;;;;7.70;6.90;;;;;;;12.62;100.00;102034.91;5071440;28;20025;-82
2023/06/16 01:50:52;;;;;;;10.70;7.97;;;;;;;12.57;100.00;102030.91;5073095;28;20033;-83
2023/06/16 01:53:19;;;;;;;9.32;7.18;;;;;;;12.55;100.00;102030.19;5072750;28;20033;-83
2023/06/16 01:55:49;;;;;;;10.68;7.20;;;;;;;12.53;100.00;102035.66;5074679;28;20033;-82
2023/06/16 01:58:22;;;;;;;10.48;7.15;;;;;;;12.50;100.00;102041.25;5076022;28;20381;-82
2023/06/16 02:00:57;;;;;;;10.27;7.65;;;;;;;12.51;100.00;102040.28;5071979;28;20032;-82
2023/06/16 02:03:34;;;;;;;8.45;7.43;;;;;;;12.48;100.00;102032.50;5072870;28;20074;-82
2023/06/16 02:06:05;;;;;;;8.35;6.43;;;;;;;12.45;100.00;102038.94;5073169;28;20055;-82
2023/06/16 02:08:32;;;;;;;8.05;6.68;;;;;;;12.40;100.00;102038.44;5072661;28;20036;-83
2023/06/16 02:10:58;;;;;;;10.98;7.30;;;;;;;12.38;100.00;102036.91;5071006;28;20113;-82
2023/06/16 02:13:24;;;;;;;8.45;7.20;;;;;;;12.31;100.00;102040.03;5072866;28;20043;-82
2023/06/16 02:15:50;;;;;;;10.00;7.43;;;;;;;12.31;100.00;102040.03;5072318;28;20028;-82
2023/06/16 02:18:24;;;;;;;8.70;6.75;;;;;;;12.30;100.00;102032.13;5072873;28;20388;-83
2023/06/16 02:20:51;;;;;;;9.60;6.90;;;;;;;12.28;100.00;102034.94;5076701;28;20364;-83
2023/06/16 02:23:17;;;;;;;9.38;7.55;;;;;;;12.26;100.00;102034.22;5074983;28;20040;-82
2023/06/16 02:25:42;;;;;;;8.63;7.10;;;;;;;12.22;100.00;102029.25;5075921;28;20032;-83
2023/06/16 02:28:08;;;;;;;9.50;7.35;;;;;;;12.19;100.00;102037.50;5058158;28;20039;-82
2023/06/16 02:30:38;;;;;;;9.02;6.88;;;;;;;12.17;100.00;102034.94;5075327;28;20518;-83
2023/06/16 02:33:04;;;;;;;8.43;7.38;;;;;;;12.09;100.00;102035.56;5074899;28;20171;-82
2023/06/16 02:35:30;;;;;;;9.48;7.68;;;;;;;12.08;100.00;102039.19;5076170;28;20469;-81
2023/06/16 02:37:55;;;;;;;9.82;7.70;;;;;;;12.04;100.00;102048.38;5075802;28;20333;-82
2023/06/16 02:40:21;;;;;;;9.85;7.68;;;;;;;12.02;100.00;102042.31;5075781;28;20141;-82
2023/06/16 02:42:48;;;;;;;10.13;7.70;;;;;;;11.97;100.00;102034.69;5078146;28;20036;-81
2023/06/16 02:45:14;;;;;;;8.95;7.78;;;;;;;11.96;100.00;102038.31;5076785;28;20035;-82
2023/06/16 02:47:40;;;;;;;11.55;7.72;;;;;;;11.94;100.00;102040.25;5076381;28;20114;-83
2023/06/16 02:50:07;;;;;;;10.13;8.00;;;;;;;11.91;100.00;102032.47;5076880;28;20110;-82
2023/06/16 02:52:33;;;;;;;13.15;8.07;;;;;;;11.89;100.00;102037.03;5075269;28;20028;-82
2023/06/16 02:55:00;;;;;;;11.15;7.80;;;;;;;11.85;100.00;102032.91;5077922;28;20063;-83
2023/06/16 02:57:25;;;;;;;11.00;7.80;;;;;;;11.86;100.00;102039.13;5076091;28;20028;-81
2023/06/16 02:59:51;;;;;;;9.38;7.40;;;;;;;11.83;100.00;102030.38;5073894;28;20461;-84
2023/06/16 03:02:16;;;;;;;9.48;7.90;;;;;;;11.81;100.00;102036.81;5075503;28;20024;-82
2023/06/16 03:04:42;;;;;;;10.10;7.70;;;;;;;11.80;100.00;102043.09;5075900;28;20376;-82
2023/06/16 03:07:10;;;;;;;10.35;7.80;;;;;;;11.78;100.00;102047.72;5074378;28;20113;-83
2023/06/16 03:09:36;;;;;;;8.15;7.35;;;;;;;11.75;100.00;102037.28;5075605;28;20473;-83
2023/06/16 03:12:01;;;;;;;9.98;8.57;;;;;;;11.73;100.00;102048.03;5073879;28;20067;-83
2023/06/16 03:14:27;;;;;;;10.95;6.95;;;;;;;11.68;100.00;102039.56;5075866;28;20037;-82
2023/06/16 03:16:53;;;;;;;9.63;7.80;;;;;;;11.67;100.00;102039.66;5075323;28;20024;-83
2023/06/16 03:19:19;;;;;;;14.07;8.43;;;;;;;11.64;100.00;102040.75;5073897;28;20036;-82
2023/06/16 03:21:44;;;;;;;8.32;7.35;;;;;;;11.61;100.00;102047.19;5073724;28;20149;-83
2023/06/16 03:24:13;;;;;;;10.05;8.20;;;;;;;11.65;100.00;102050.44;5073539;28;20121;-83
2023/06/16 03:26:42;;;;;;;13.27;10.52;;;;;;;11.63;100.00;102044.41;5075456;28;20032;-83
2023/06/16 03:29:07;;;;;;;11.57;9.70;;;;;;;11.63;100.00;102060.38;5057539;28;20483;-83
2023/06/16 03:31:33;;;;;;;11.98;8.15;;;;;;;11.63;100.00;102050.56;5073494;28;20045;-83
2023/06/16 03:33:58;;;;;;;10.23;8.05;;;;;;;11.62;100.00;102056.00;5073297;28;20032;-83
2023/06/16 03:36:26;;;;;;;8.65;7.53;;;;;;;11.62;100.00;102056.84;5073683;28;20032;-83
2023/06/16 03:38:51;;;;;;;13.52;9.57;;;;;;;11.61;100.00;102056.97;5074962;28;20120;-83
2023/06/16 03:41:17;;;;;;;10.13;7.35;;;;;;;11.60;100.00;102060.63;5074702;28;20032;-83
2023/06/16 03:43:42;;;;;;;8.93;7.15;;;;;;;11.56;100.00;102060.00;5073495;28;20044;-83
2023/06/16 03:46:08;;;;;;;10.95;8.70;;;;;;;11.57;100.00;102060.81;5074615;28;20108;-82
2023/06/16 03:48:33;;;;;;;9.35;6.88;;;;;;;11.56;100.00;102065.31;5074503;28;20082;-83
2023/06/16 03:50:58;;;;;;;9.10;7.40;;;;;;;11.55;100.00;102054.78;5073026;28;20033;-82
2023/06/16 03:53:24;;;;;;;8.27;7.18;;;;;;;11.58;100.00;102067.88;5074367;28;20035;-82
2023/06/16 03:55:49;;;;;;;7.63;6.82;;;;;;;11.59;100.00;102064.25;5073340;28;20410;-82
2023/06/16 03:58:15;;;;;;;11.07;6.95;;;;;;;11.64;100.00;102060.28;5072764;28;20499;-83
2023/06/16 04:00:42;;;;;;;7.85;6.70;;;;;;;11.67;100.00;102069.84;5073415;28;20040;-82
2023/06/16 04:03:08;;;;;;;9.35;6.45;;;;;;;11.68;100.00;102062.72;5073990;28;20154;-82
2023/06/16 04:05:34;;;;;;;9.35;6.82;;;;;;;11.72;100.00;102064.16;5072660;28;20045;-82
2023/06/16 04:08:00;;;;;;;7.95;6.45;;;;;;;11.77;100.00;102064.66;5073976;28;20040;-81
2023/06/16 04:10:25;;;;;;;12.05;8.63;;;;;;;11.83;100.00;102066.84;5073897;28;20048;-82
2023/06/16 04:12:51;;;;;;;12.70;7.95;;;;;;;11.87;100.00;102073.66;5076293;28;20040;-82
2023/06/16 04:15:16;;;;;;;11.55;7.82;;;;;;;11.93;100.00;102072.38;5094501;28;20040;-82
2023/06/16 04:17:41;;;;;;;15.43;8.55;;;;;;;11.99;100.00;102069.25;5076177;28;20073;-82
2023/06/16 04:20:10;;;;;;;9.88;8.27;;;;;;;12.04;100.00;102063.53;5075915;28;20441;-83
2023/06/16 04:22:36;;;;;;;11.75;8.80;;;;;;;12.06;100.00;102061.59;5076761;28;20034;-82
2023/06/16 04:25:01;;;;;;;7.65;6.68;;;;;;;12.10;100.00;102066.56;5075026;28;20036;-82
2023/06/16 04:27:28;;;;;;;9.13;6.60;;;;;;;12.14;100.00;102070.72;5093825;28;20028;-82
2023/06/16 04:29:54;;;;;;;10.50;7.88;;;;;;;12.19;100.00;102064.16;5093685;28;20055;-82
2023/06/16 04:32:21;;;;;;;14.32;7.80;;;;;;;12.22;100.00;102071.94;5094112;28;20115;-82
2023/06/16 04:34:49;;;;;;;10.43;7.70;;;;;;;12.27;100.00;102070.63;5094153;28;20028;-82
2023/06/16 04:37:16;;;;;;;11.50;7.43;;;;;;;12.36;100.00;102074.38;5093430;28;20027;-82
2023/06/16 04:39:42;;;;;;;13.13;7.13;;;;;;;12.43;100.00;102069.41;5076146;28;20047;-83
2023/06/16 04:42:09;;;;;;;10.00;7.20;;;;;;;12.50;100.00;102074.13;5092613;28;20028;-83
2023/06/16 04:44:35;;;;;;;12.40;7.13;;;;;;;12.55;100.00;102078.25;5059222;28;20459;-83
2023/06/16 04:47:02;;;;;;;8.95;6.05;;;;;;;12.58;100.00;102076.19;5058815;28;20038;-82
2023/06/16 04:49:28;;;;;;;7.80;6.22;;;;;;;12.64;100.00;102082.84;5075070;28;20032;-82
2023/06/16 04:51:53;;;;;;;8.90;6.70;;;;;;;12.68;100.00;102087.00;5074859;28;20107;-82
2023/06/16 04:54:19;;;;;;;10.00;6.50;;;;;;;12.73;100.00;102076.78;5075690;28;20044;-82
2023/06/16 04:56:45;;;;;;;7.18;5.47;;;;;;;12.77;100.00;102080.06;5093168;28;20032;-82
2023/06/16 04:59:11;;;;;;;19.42;12.85;;;;;;;12.84;100.00;102081.28;5058429;28;20031;-85
2023/06/16 05:01:49;;;;;;;;;;;;;;;;;;;;;
2023/06/16 05:04:21;;;;;;;13.23;10.00;;;;;;;12.95;100.00;102075.06;5094546;28;20046;-83
2023/06/16 05:06:48;;;;;;;15.05;9.35;;;;;;;13.04;100.00;102080.47;5094679;28;20491;-83
2023/06/16 05:09:14;;;;;;;12.60;8.95;;;;;;;13.09;100.00;102076.59;5075263;28;20446;-83
2023/06/16 05:11:42;;;;;;;14.43;8.10;;;;;;;13.17;100.00;102080.34;5075718;28;20071;-83
2023/06/16 05:14:11;;;;;;;11.50;7.25;;;;;;;13.24;100.00;102080.66;5094689;28;20028;-81
2023/06/16 05:16:37;;;;;;;8.50;5.97;;;;;;;13.35;100.00;102082.50;5076054;28;20032;-84
2023/06/16 05:19:02;;;;;;;13.68;7.85;;;;;;;13.40;100.00;102082.97;5094538;28;20105;-84
2023/06/16 05:21:27;;;;;;;9.25;7.00;;;;;;;13.50;100.00;102083.91;5094073;28;20112;-83
2023/06/16 05:23:53;;;;;;;18.25;10.10;;;;;;;13.59;100.00;102082.28;5094325;28;20042;-83
2023/06/16 05:26:22;;;;;;;22.40;14.70;;;;;;;13.68;100.00;102084.19;5093952;28;20032;-83
2023/06/16 05:28:47;;;;;;;16.42;9.88;;;;;;;13.77;100.00;102084.41;5094134;28;20027;-83
2023/06/16 05:31:13;;;;;;;12.48;7.50;;;;;;;13.85;100.00;102081.91;5077054;28;20047;-82
2023/06/16 05:33:38;;;;;;;11.48;6.78;;;;;;;14.01;100.00;102084.13;5075858;28;20391;-82
2023/06/16 05:36:04;;;;;;;8.18;6.05;;;;;;;14.19;100.00;102076.34;5094134;28;20039;-83
2023/06/16 05:38:29;;;;;;;9.40;6.13;;;;;;;14.34;100.00;102083.03;5093772;28;20020;-83
2023/06/16 05:40:55;;;;;;;12.68;5.88;;;;;;;14.50;100.00;102084.41;5076021;28;20463;-82
2023/06/16 05:43:20;;;;;;;9.45;5.63;;;;;;;14.68;100.00;102082.78;5093639;28;20027;-82
2023/06/16 05:45:46;;;;;;;9.30;6.18;;;;;;;14.83;100.00;102090.47;5093591;28;20031;-83
2023/06/16 05:48:11;;;;;;;13.57;6.45;;;;;;;15.02;100.00;102085.16;5093236;28;20641;-83
2023/06/16 05:50:37;;;;;;;7.13;5.43;;;;;;;15.27;100.00;102077.56;5093267;28;20032;-82
2023/06/16 05:53:04;;;;;;;9.77;5.97;;;;;;;15.47;100.00;102081.94;5057937;28;20396;-82
2023/06/16 05:55:30;;;;;;;7.65;5.25;;;;;;;15.75;100.00;102086.59;5075475;28;20354;-82
2023/06/16 05:57:55;;;;;;;12.52;5.70;;;;;;;15.98;100.00;102089.84;5075880;28;20035;-83
2023/06/16 06:00:21;;;;;;;10.25;6.28;;;;;;;16.22;100.00;102090.19;5093597;28;20031;-83
2023/06/16 06:02:46;;;;;;;10.85;6.22;;;;;;;16.48;100.00;102083.31;5058835;28;20035;-81
2023/06/16 06:05:11;;;;;;;9.23;5.45;;;;;;;16.74;100.00;102087.03;5042054;28;20066;-82
2023/06/16 06:07:37;;;;;;;13.18;5.40;;;;;;;17.02;100.00;102096.97;5075182;28;20435;-81
2023/06/16 06:10:21;;;;;;;;;;;;;;;;;;;;;
2023/06/16 06:12:57;;;;;;;;;;;;;;;;;;;;;
2023/06/16 06:15:26;;;;;;;7.82;4.90;;;;;;;17.77;100.00;102096.66;5081333;28;20040;-84
2023/06/16 06:20:59;;;;;;;7.90;4.60;;;;;;;18.31;100.00;102101.94;5085550;28;20105;-83
2023/06/16 06:23:25;;;;;;;10.65;4.20;;;;;;;18.52;100.00;102101.53;5093947;28;20039;-73
2023/06/16 06:25:50;;;;;;;14.10;4.40;;;;;;;18.71;100.00;102105.00;5092642;28;20460;-73
2023/06/16 06:28:16;;;;;;;7.13;3.95;;;;;;;18.89;100.00;102111.16;5074589;28;20123;-74
2023/06/16 06:30:41;;;;;;;10.02;4.10;;;;;;;19.03;100.00;102105.16;5074715;28;20051;-73
2023/06/16 06:33:06;;;;;;;10.68;4.18;;;;;;;19.14;100.00;102109.38;5092499;28;20031;-72
2023/06/16 06:35:32;;;;;;;8.68;4.60;;;;;;;19.33;100.00;102104.69;5074150;28;20047;-74
2023/06/16 06:37:58;;;;;;;10.77;5.13;;;;;;;19.55;100.00;102109.44;5092709;28;20417;-76
2023/06/16 06:40:23;;;;;;;14.80;4.68;;;;;;;19.73;100.00;102106.59;5092262;28;20032;-76
2023/06/16 06:42:49;;;;;;;6.90;4.75;;;;;;;19.85;100.00;102107.09;5073757;28;20479;-73
2023/06/16 06:45:14;;;;;;;7.22;4.20;;;;;;;19.93;100.00;102111.69;5073529;28;20107;-74
2023/06/16 06:47:40;;;;;;;9.13;4.30;;;;;;;20.11;100.00;102113.31;5091821;28;20039;-74
2023/06/16 06:50:06;;;;;;;7.47;4.18;;;;;;;20.23;100.00;102112.81;5091926;28;20040;-73
2023/06/16 06:52:31;;;;;;;11.50;4.50;;;;;;;20.34;100.00;102113.47;5091516;28;20074;-77
2023/06/16 06:54:57;;;;;;;10.82;4.18;;;;;;;20.38;100.00;102118.34;5073251;28;20039;-72
2023/06/16 06:57:23;;;;;;;7.88;4.05;;;;;;;20.48;100.00;102115.44;5073771;28;20113;-74
2023/06/16 06:59:49;;;;;;;9.32;4.28;;;;;;;20.49;100.00;102109.00;5091193;28;20029;-74
2023/06/16 07:02:15;;;;;;;5.47;3.63;;;;;;;20.59;100.00;102114.22;5091723;28;20036;-74
2023/06/16 07:04:42;;;;;;;6.90;3.30;;;;;;;20.68;100.00;102115.06;5091604;28;20129;-74
2023/06/16 07:07:08;;;;;;;10.00;3.63;;;;;;;20.63;100.00;102120.97;5094299;28;20051;-72
2023/06/16 07:09:33;;;;;;;11.52;3.97;;;;;;;20.65;100.00;102110.81;5094964;28;20456;-74
2023/06/16 07:11:59;;;;;;;5.82;3.15;;;;;;;20.75;100.00;102119.59;5095198;28;20051;-73
2023/06/16 07:14:24;;;;;;;6.20;3.80;;;;;;;20.79;100.00;102114.66;5094783;28;20131;-73
2023/06/16 07:16:50;;;;;;;6.70;3.53;;;;;;;20.86;95.58;102117.53;5077109;28;20444;-73
2023/06/16 07:19:15;;;;;;;12.68;3.70;;;;;;;20.93;99.44;102115.81;5095436;28;20035;-72
2023/06/16 07:21:40;;;;;;;10.23;3.60;;;;;;;21.05;96.64;102127.06;5095292;28;20409;-73
2023/06/16 07:24:06;;;;;;;5.68;3.30;;;;;;;21.21;95.71;102116.13;5095216;28;20071;-75
2023/06/16 07:26:32;;;;;;;18.25;4.07;;;;;;;21.24;92.19;102110.38;5094943;28;20031;-73
2023/06/16 07:28:58;;;;;;;6.53;3.08;;;;;;;21.38;98.95;102110.59;5094887;28;20501;-73
2023/06/16 07:31:24;;;;;;;12.25;3.78;;;;;;;21.59;92.41;102110.00;5094681;28;20468;-73
2023/06/16 07:33:49;;;;;;;10.73;3.30;;;;;;;21.68;78.49;102111.63;5077168;28;20062;-74
2023/06/16 07:36:15;;;;;;;13.32;3.80;;;;;;;21.74;87.53;102113.59;5094739;28;20036;-74
2023/06/16 07:38:40;;;;;;;6.10;3.20;;;;;;;21.86;86.59;102113.16;5077079;28;20028;-75
2023/06/16 07:41:07;;;;;;;5.53;3.55;;;;;;;22.11;79.92;102120.03;5076646;28;20068;-74
2023/06/16 07:43:33;;;;;;;9.65;3.17;;;;;;;22.29;78.25;102119.66;5096050;28;20052;-91
2023/06/16 07:45:58;;;;;;;7.57;3.42;;;;;;;22.46;71.85;102119.50;5095412;28;20218;-86
2023/06/16 07:48:24;;;;;;;7.07;3.17;;;;;;;22.63;68.50;102123.72;5094835;28;20128;-78
2023/06/16 07:50:49;;;;;;;4.15;3.03;;;;;;;22.64;60.23;102122.66;5075841;28;20036;-77
2023/06/16 07:53:15;;;;;;;9.95;3.45;;;;;;;22.65;59.91;102113.50;5076562;28;20108;-78
2023/06/16 07:55:40;;;;;;;7.93;3.40;;;;;;;22.52;59.84;102122.31;5094302;28;20036;-77
2023/06/16 07:58:06;;;;;;;9.32;2.80;;;;;;;22.59;66.73;102130.53;5094817;28;20032;-78
2023/06/16 08:00:31;;;;;;;5.05;3.22;;;;;;;22.79;61.16;102121.81;5095309;28;20047;-78
2023/06/16 08:02:57;;;;;;;10.57;3.33;;;;;;;23.00;66.60;102121.03;5076964;28;20032;-78
2023/06/16 08:05:22;;;;;;;4.55;3.20;;;;;;;23.28;65.93;102118.47;5095106;28;20024;-77
2023/06/16 08:07:48;;;;;;;4.60;3.20;;;;;;;23.52;60.55;102113.69;5094858;28;20482;-77
2023/06/16 08:10:16;;;;;;;4.60;2.65;;;;;;;23.58;57.22;102105.56;5095253;28;20031;-79
2023/06/16 08:12:41;;;;;;;6.07;3.30;;;;;;;23.53;52.97;102112.66;5095679;28;20052;-79
2023/06/16 08:15:07;;;;;;;6.13;3.17;;;;;;;23.56;51.16;102110.38;5095645;28;20047;-78
2023/06/16 08:17:33;;;;;;;3.53;2.58;;;;;;;23.67;54.98;102113.59;5077432;28;20036;-79
2023/06/16 08:19:58;;;;;;;7.13;3.25;;;;;;;23.72;54.69;102119.28;5095727;28;20050;-79
2023/06/16 08:22:23;;;;;;;4.93;2.95;;;;;;;23.68;52.93;102115.28;5076489;28;20111;-78
2023/06/16 08:24:49;;;;;;;6.07;3.28;;;;;;;23.86;52.66;102107.53;5076409;28;20032;-77
2023/06/16 08:27:14;;;;;;;5.03;3.22;;;;;;;23.93;54.64;102111.13;5076760;28;20105;-77
2023/06/16 08:29:40;;;;;;;4.68;3.00;;;;;;;23.99;49.54;102105.94;5094895;28;20032;-78
2023/06/16 08:32:07;;;;;;;5.97;2.95;;;;;;;24.26;55.27;102113.25;5095154;28;20458;-78
2023/06/16 08:34:34;;;;;;;5.75;3.10;;;;;;;24.44;50.60;102110.00;5094765;28;20125;-79
2023/06/16 08:37:01;;;;;;;5.03;2.90;;;;;;;24.64;52.61;102103.84;5094668;28;20059;-78
2023/06/16 08:39:26;;;;;;;3.58;2.80;;;;;;;25.00;50.48;102105.44;5094685;28;20036;-79
2023/06/16 08:41:52;;;;;;;4.60;3.15;;;;;;;25.30;45.32;102099.69;5076107;28;20142;-77
2023/06/16 08:44:20;;;;;;;10.48;3.40;;;;;;;25.60;46.53;102094.69;5094540;28;20024;-79
2023/06/16 08:46:46;;;;;;;9.60;3.20;;;;;;;25.70;43.19;102094.28;5094301;28;20119;-78
2023/06/16 08:49:14;;;;;;;8.70;3.17;;;;;;;25.90;45.57;102105.19;5094498;28;20059;-78
2023/06/16 08:51:49;;;;;;;4.43;2.97;;;;;;;26.14;45.22;102100.13;5094527;28;20093;-78
2023/06/16 08:54:18;;;;;;;4.70;3.33;;;;;;;26.21;39.76;102104.53;5094892;28;20024;-79
2023/06/16 08:56:45;;;;;;;5.78;3.17;;;;;;;26.33;40.67;102098.41;5094377;28;20032;-76
2023/06/16 08:59:11;;;;;;;3.63;2.78;;;;;;;26.44;39.33;102105.94;5094983;28;20061;-79
2023/06/16 09:01:39;;;;;;;5.13;2.88;;;;;;;26.52;36.51;102100.22;5076552;28;20043;-76
2023/06/16 09:04:09;;;;;;;5.70;2.80;;;;;;;26.71;38.98;102101.25;5094128;28;20028;-76
2023/06/16 09:06:37;;;;;;;6.78;3.30;;;;;;;27.20;37.60;102098.88;5094592;28;20541;-79
2023/06/16 09:09:03;;;;;;;6.13;2.80;;;;;;;27.72;38.28;102106.09;5095099;28;20032;-75
2023/06/16 09:11:30;;;;;;;2.95;2.65;;;;;;;28.13;37.26;102101.94;5094995;28;20369;-74
2023/06/16 09:13:56;;;;;;;4.43;3.05;;;;;;;28.53;34.90;102103.38;5094529;28;20084;-76
2023/06/16 09:16:22;;;;;;;5.18;3.05;;;;;;;28.45;33.01;102102.63;5076155;28;20081;-78
2023/06/16 09:18:49;;;;;;;8.82;3.15;;;;;;;28.29;33.50;102097.75;5094502;28;20024;-76
2023/06/16 09:21:18;;;;;;;5.07;3.10;;;;;;;28.55;36.42;102098.53;5094393;28;20494;-76
2023/06/16 09:23:44;;;;;;;5.20;2.85;;;;;;;28.72;32.83;102099.59;5093851;28;20055;-77
2023/06/16 09:26:13;;;;;;;5.00;3.38;;;;;;;28.86;34.98;102097.53;5094200;28;20404;-75
2023/06/16 09:28:39;;;;;;;4.90;2.92;;;;;;;28.90;33.25;102095.16;5075693;28;20067;-76
2023/06/16 09:31:07;;;;;;;4.53;2.63;;;;;;;28.99;33.96;102093.75;5075788;28;20031;-76
2023/06/16 09:33:33;;;;;;;3.33;3.03;;;;;;;29.01;33.41;102097.94;5094030;28;20039;-76
2023/06/16 09:36:00;;;;;;;3.17;2.88;;;;;;;29.13;33.58;102084.28;5093799;28;20028;-76
2023/06/16 09:38:26;;;;;;;5.15;2.78;;;;;;;29.26;32.16;102094.25;5093613;28;20039;-76
2023/06/16 09:40:51;;;;;;;6.85;2.78;;;;;;;29.47;33.36;102092.00;5093581;28;20027;-76
2023/06/16 09:43:17;;;;;;;3.20;2.90;;;;;;;29.69;30.68;102084.91;5093705;28;20036;-76
2023/06/16 09:45:44;;;;;;;6.80;2.55;;;;;;;30.05;33.33;102093.97;5093445;28;20341;-76
2023/06/16 09:48:11;;;;;;;8.13;3.10;;;;;;;30.07;32.66;102089.06;5093387;28;20039;-75
2023/06/16 09:50:40;;;;;;;4.38;2.80;;;;;;;29.90;28.89;102088.13;5093678;28;20034;-77
2023/06/16 09:53:07;;;;;;;3.33;2.78;;;;;;;29.81;30.04;102092.28;5093365;28;20042;-80
2023/06/16 09:55:37;;;;;;;9.95;3.00;;;;;;;30.14;31.76;102083.47;5093751;28;20028;-82
2023/06/16 09:58:02;;;;;;;3.38;2.67;;;;;;;30.00;29.50;102090.28;5075585;28;20035;-77
2023/06/16 10:00:30;;;;;;;3.67;2.72;;;;;;;30.17;26.72;102085.72;5075764;28;20032;-75
2023/06/16 10:02:56;;;;;;;4.35;2.80;;;;;;;30.00;26.48;102082.88;5093915;28;20064;-78
2023/06/16 10:05:24;;;;;;;3.85;2.80;;;;;;;30.14;29.53;102074.38;5093642;28;20057;-81
2023/06/16 10:07:57;;;;;;;4.35;2.72;;;;;;;30.28;29.47;102075.81;5094970;28;20032;-80
2023/06/16 10:10:29;;;;;;;6.97;3.13;;;;;;;30.45;28.68;102072.34;5096230;28;20042;-79
2023/06/16 10:12:59;;;;;;;4.45;2.88;;;;;;;30.71;31.08;102079.16;5076210;28;20442;-85
2023/06/16 10:15:25;;;;;;;7.13;2.88;;;;;;;30.89;30.91;102073.47;5094899;28;20055;-80
2023/06/16 10:17:53;;;;;;;3.03;2.58;;;;;;;31.00;29.24;102070.94;5093000;28;20468;-74
2023/06/16 10:20:22;;;;;;;2.72;2.45;;;;;;;31.33;29.63;102070.13;5093091;28;20025;-72
2023/06/16 10:22:48;;;;;;;8.98;2.67;;;;;;;31.60;27.50;102072.25;5075725;28;20460;-72
2023/06/16 10:25:14;;;;;;;6.18;2.58;;;;;;;31.97;28.20;102071.69;5093380;28;20105;-74
2023/06/16 10:27:40;;;;;;;7.78;3.10;;;;;;;32.04;27.87;102071.50;5093130;28;20036;-72
2023/06/16 10:30:09;;;;;;;7.03;3.00;;;;;;;32.19;29.40;102070.91;5092957;28;20107;-72
2023/06/16 10:32:35;;;;;;;4.43;2.92;;;;;;;32.32;27.32;102062.25;5093020;28;20028;-72
2023/06/16 10:35:01;;;;;;;5.93;2.75;;;;;;;32.44;27.32;102062.13;5092883;28;20041;-72
2023/06/16 10:37:29;;;;;;;4.82;2.58;;;;;;;32.74;27.29;102061.69;5092724;28;20031;-73
2023/06/16 10:39:56;;;;;;;5.70;3.00;;;;;;;32.43;25.94;102061.31;5094028;28;20032;-71
2023/06/16 10:42:22;;;;;;;5.35;2.80;;;;;;;32.54;28.16;102061.44;5096900;28;20024;-72
2023/06/16 10:44:47;;;;;;;3.63;2.67;;;;;;;32.59;28.54;102055.97;5096613;28;20035;-75
2023/06/16 10:47:12;;;;;;;7.60;2.85;;;;;;;32.60;28.05;102058.44;5096415;28;20101;-72
2023/06/16 10:49:47;;;;;;;6.03;2.80;;;;;;;32.88;27.87;102059.34;5096876;28;20369;-72
2023/06/16 10:52:16;;;;;;;5.13;2.92;;;;;;;33.32;29.54;102052.84;5096779;28;20761;-73
2023/06/16 10:54:51;;;;;;;5.47;2.72;;;;;;;33.82;27.04;102057.09;5096748;28;20063;-72
2023/06/16 10:57:16;;;;;;;4.70;2.83;;;;;;;34.16;27.16;102055.84;5097227;28;20035;-71
2023/06/16 10:59:55;;;;;;;3.83;2.75;;;;;;;34.30;26.33;102053.47;5096570;28;20020;-72
2023/06/16 11:02:22;;;;;;;6.10;2.95;;;;;;;33.80;26.09;102052.94;5096409;28;20020;-71
2023/06/16 11:05:10;;;;;;;6.22;2.88;;;;;;;33.92;26.11;102056.31;5096390;28;20060;-71
2023/06/16 11:08:08;;;;;;;4.05;2.75;;;;;;;33.73;24.93;102048.47;5096293;28;20353;-73
2023/06/16 11:10:51;;;;;;;3.67;2.70;;;;;;;33.29;26.41;102054.22;5096093;28;20090;-74
2023/06/16 11:13:26;;;;;;;3.45;2.67;;;;;;;33.74;26.93;102038.28;5095688;28;20095;-72
2023/06/16 11:15:55;;;;;;;4.68;2.78;;;;;;;34.05;25.88;102042.03;5096166;28;20040;-77
2023/06/16 11:18:28;;;;;;;7.40;3.08;;;;;;;34.32;24.35;102048.50;5096429;28;20035;-72
2023/06/16 11:21:02;;;;;;;3.92;2.80;;;;;;;34.78;25.77;102052.25;5077962;28;20491;-74
2023/06/16 11:23:29;;;;;;;5.88;2.58;;;;;;;34.55;23.16;102048.03;5077776;28;20040;-72
2023/06/16 11:26:08;;;;;;;5.38;2.97;;;;;;;33.96;24.69;102046.38;5096282;28;20109;-73